Time;durP1;ratioP1;P1;durP2;ratioP2;P2;SDS_P1;SDS_P2;PMS_P1;PMS_P2;Temp;Humidity;BMP_temperature;BMP_pressure;BME280_temperature;BME280_humidity;BME280_pressure;Samples;Min_cycle;Max_cycle;Signal;HPM_P1;HPM_P2
2020/12/24 00:02:19;;;;;;;12.65;11.38;;;;;;;11.37;67.25;100509.28;5067105;28;20048;-83
2020/12/24 00:04:44;;;;;;;10.13;9.23;;;;;;;11.01;68.40;100526.00;5084279;28;20038;-83
2020/12/24 00:07:10;;;;;;;10.25;9.35;;;;;;;10.57;69.71;100511.91;5084584;28;20028;-84
2020/12/24 00:09:35;;;;;;;11.57;10.48;;;;;;;10.60;69.58;100511.47;5051117;28;20036;-82
2020/12/24 00:12:01;;;;;;;13.13;11.95;;;;;;;10.74;69.71;100518.63;5070159;28;20040;-82
2020/12/24 00:14:26;;;;;;;12.00;10.90;;;;;;;10.63;70.05;100511.06;5082085;28;20448;-82
2020/12/24 00:16:51;;;;;;;12.50;11.50;;;;;;;10.70;69.37;100508.34;5051270;28;20023;-85
2020/12/24 00:19:17;;;;;;;12.80;11.50;;;;;;;10.28;70.42;100488.56;5063948;28;20473;-83
2020/12/24 00:21:43;;;;;;;13.40;12.23;;;;;;;10.12;71.12;100508.78;5086558;28;20115;-83
2020/12/24 00:24:08;;;;;;;19.73;12.23;;;;;;;10.59;70.35;100508.97;5051492;28;20038;-84
2020/12/24 00:26:33;;;;;;;15.15;13.80;;;;;;;10.54;70.01;100504.16;5086208;28;20040;-82
2020/12/24 00:28:59;;;;;;;10.55;9.52;;;;;;;10.53;69.29;100521.50;5083726;28;20039;-84
2020/12/24 00:31:24;;;;;;;11.38;10.52;;;;;;;11.02;68.95;100530.41;5048997;28;20521;-82
2020/12/24 00:33:50;;;;;;;8.63;7.80;;;;;;;11.12;68.14;100533.53;5065832;28;20165;-83
2020/12/24 00:36:16;;;;;;;10.35;9.48;;;;;;;10.62;68.97;100524.88;5047202;28;21983;-81
2020/12/24 00:38:41;;;;;;;8.65;5.97;;;;;;;10.74;68.78;100550.44;5086656;28;20032;-82
2020/12/24 00:41:07;;;;;;;6.53;5.88;;;;;;;10.89;67.87;100545.66;5050825;28;20035;-82
2020/12/24 00:43:34;;;;;;;7.38;6.47;;;;;;;10.40;70.00;100530.44;5081542;28;20035;-84
2020/12/24 00:45:59;;;;;;;8.75;6.60;;;;;;;10.61;69.06;100537.63;5082826;28;20032;-88
2020/12/24 00:48:25;;;;;;;6.88;5.68;;;;;;;10.74;68.72;100548.53;5062165;28;20573;-87
2020/12/24 00:50:50;;;;;;;7.93;7.13;;;;;;;10.58;69.19;100554.34;5045781;28;20142;-85
2020/12/24 00:53:16;;;;;;;6.68;5.93;;;;;;;10.72;68.51;100553.34;5083944;28;20055;-88
2020/12/24 00:55:41;;;;;;;7.50;6.78;;;;;;;10.38;68.98;100538.81;5065898;28;20040;-88
2020/12/24 00:58:07;;;;;;;8.82;6.63;;;;;;;10.44;68.27;100539.88;5033433;28;20032;-84
2020/12/24 01:00:32;;;;;;;5.50;5.00;;;;;;;10.08;69.17;100553.69;5064810;28;20036;-85
2020/12/24 01:02:57;;;;;;;5.82;5.32;;;;;;;10.28;68.57;100581.78;5065867;28;20055;-89
2020/12/24 01:05:23;;;;;;;10.25;9.52;;;;;;;9.78;69.81;100572.94;5068534;28;20517;-84
2020/12/24 01:07:48;;;;;;;10.80;10.02;;;;;;;10.09;69.23;100580.66;5068099;28;20032;-83
2020/12/24 01:10:14;;;;;;;6.90;5.63;;;;;;;9.88;68.90;100561.69;5067274;28;20037;-84
2020/12/24 01:12:40;;;;;;;7.20;3.63;;;;;;;9.42;69.76;100571.16;5084918;28;20043;-86
2020/12/24 01:15:06;;;;;;;6.18;4.10;;;;;;;9.76;69.32;100580.41;5066188;28;21270;-84
2020/12/24 01:17:32;;;;;;;8.27;4.47;;;;;;;9.55;69.64;100579.44;5079481;28;20059;-85
2020/12/24 01:19:57;;;;;;;7.85;4.45;;;;;;;9.30;69.62;100568.97;5034534;28;21503;-84
2020/12/24 01:22:22;;;;;;;6.53;4.90;;;;;;;9.14;70.64;100558.38;5064734;28;20044;-85
2020/12/24 01:24:48;;;;;;;8.25;5.40;;;;;;;9.35;70.27;100576.53;5066551;28;20039;-86
2020/12/24 01:27:13;;;;;;;8.10;5.35;;;;;;;9.54;69.76;100585.88;5068230;28;20020;-83
2020/12/24 01:29:39;;;;;;;8.05;6.95;;;;;;;9.50;70.08;100587.31;5066808;28;20037;-83
2020/12/24 01:32:04;;;;;;;5.78;3.75;;;;;;;9.48;69.91;100605.66;5052739;28;20032;-84
2020/12/24 01:34:29;;;;;;;6.13;5.63;;;;;;;9.62;69.15;100593.03;5065574;28;20490;-84
2020/12/24 01:37:00;;;;;;;7.53;5.63;;;;;;;9.40;69.73;100598.50;5034528;28;20062;-87
2020/12/24 01:39:25;;;;;;;8.00;5.23;;;;;;;9.65;69.47;100601.66;5082447;28;20115;-84
2020/12/24 01:41:51;;;;;;;6.22;5.60;;;;;;;9.60;69.57;100604.09;5035624;28;20039;-84
2020/12/24 01:44:17;;;;;;;8.15;6.13;;;;;;;9.58;69.33;100595.31;5067138;28;20071;-84
2020/12/24 01:46:42;;;;;;;5.68;4.78;;;;;;;9.22;69.75;100587.25;5048273;28;20031;-85
2020/12/24 01:49:08;;;;;;;11.10;6.15;;;;;;;9.59;69.40;100601.59;5086414;28;20090;-86
2020/12/24 01:51:34;;;;;;;7.07;5.90;;;;;;;9.38;70.42;100616.84;5067139;28;20035;-84
2020/12/24 01:54:00;;;;;;;8.88;7.45;;;;;;;9.52;69.48;100630.56;5083124;28;20024;-85
2020/12/24 01:56:26;;;;;;;8.90;5.88;;;;;;;9.43;69.81;100636.09;5068094;28;20719;-83
2020/12/24 01:58:53;;;;;;;8.98;7.43;;;;;;;9.74;68.88;100631.38;5085996;28;20032;-85
2020/12/24 02:01:20;;;;;;;7.32;6.57;;;;;;;9.65;68.90;100609.81;5065737;28;20020;-85
2020/12/24 02:03:45;;;;;;;7.05;4.18;;;;;;;9.76;68.79;100634.72;5085297;28;20547;-84
2020/12/24 02:06:11;;;;;;;11.02;8.25;;;;;;;9.42;69.64;100645.31;5035973;28;20028;-84
2020/12/24 02:08:37;;;;;;;6.97;6.20;;;;;;;9.34;69.55;100650.00;5084159;28;20092;-83
2020/12/24 02:11:02;;;;;;;7.22;6.35;;;;;;;9.19;69.60;100622.91;5068025;28;20737;-82
2020/12/24 02:13:28;;;;;;;8.60;7.65;;;;;;;9.03;69.83;100624.00;5067913;28;20043;-83
2020/12/24 02:15:53;;;;;;;7.57;6.93;;;;;;;9.19;69.44;100640.06;5053743;28;20402;-84
2020/12/24 02:18:20;;;;;;;7.03;4.88;;;;;;;9.28;69.04;100652.47;5081741;28;20032;-83
2020/12/24 02:20:46;;;;;;;15.48;7.22;;;;;;;9.34;68.75;100641.88;5066763;28;20028;-84
2020/12/24 02:23:12;;;;;;;8.30;3.67;;;;;;;9.17;68.82;100641.28;5082880;28;20043;-86
2020/12/24 02:25:37;;;;;;;10.85;9.90;;;;;;;8.87;69.15;100646.78;5074061;28;20502;-86
2020/12/24 02:28:04;;;;;;;5.72;4.72;;;;;;;8.86;68.43;100655.94;5065685;28;20035;-85
2020/12/24 02:30:29;;;;;;;6.43;5.88;;;;;;;8.38;68.46;100661.75;5067721;28;20060;-85
2020/12/24 02:32:55;;;;;;;6.40;5.65;;;;;;;8.42;68.96;100671.19;5051214;28;20093;-83
2020/12/24 02:35:20;;;;;;;9.70;5.85;;;;;;;8.38;68.65;100681.53;5067698;28;20130;-82
2020/12/24 02:37:46;;;;;;;11.52;10.73;;;;;;;8.54;68.18;100686.00;5079615;28;20036;-86
2020/12/24 02:40:11;;;;;;;11.50;10.55;;;;;;;8.45;68.25;100697.09;5066607;28;20119;-85
2020/12/24 02:42:37;;;;;;;7.15;6.55;;;;;;;8.58;68.04;100686.44;5084403;28;20041;-87
2020/12/24 02:45:03;;;;;;;6.75;6.30;;;;;;;8.11;67.58;100685.72;5069183;28;20024;-85
2020/12/24 02:47:29;;;;;;;9.20;8.50;;;;;;;8.02;68.02;100703.09;5067773;28;20028;-86
2020/12/24 02:49:54;;;;;;;3.63;3.03;;;;;;;8.21;67.21;100690.88;5066919;28;20043;-85
2020/12/24 02:52:20;;;;;;;7.32;6.28;;;;;;;7.86;68.47;100710.31;5080698;28;20028;-86
2020/12/24 02:54:45;;;;;;;10.90;10.13;;;;;;;8.02;67.73;100697.66;5069146;28;20829;-85
2020/12/24 02:57:10;;;;;;;7.90;7.47;;;;;;;8.15;67.21;100705.16;5055267;28;20039;-84
2020/12/24 02:59:39;;;;;;;9.77;9.07;;;;;;;7.90;68.38;100737.88;5088718;28;20482;-87
2020/12/24 03:02:04;;;;;;;10.00;9.45;;;;;;;7.82;67.85;100724.41;5083566;28;20111;-86
2020/12/24 03:04:30;;;;;;;11.82;10.93;;;;;;;7.87;67.98;100736.34;5052774;28;20032;-84
2020/12/24 03:06:56;;;;;;;7.13;6.75;;;;;;;7.54;68.13;100727.66;5056234;28;21288;-85
2020/12/24 03:09:21;;;;;;;11.13;10.43;;;;;;;7.75;67.94;100718.84;5036282;28;20033;-85
2020/12/24 03:11:50;;;;;;;8.02;7.43;;;;;;;7.93;67.36;100723.97;5052504;28;20035;-84
2020/12/24 03:14:19;;;;;;;10.80;10.20;;;;;;;7.72;68.26;100743.56;5090467;28;20024;-86
2020/12/24 03:16:48;;;;;;;9.70;8.90;;;;;;;7.87;68.01;100752.59;5071836;28;20077;-84
2020/12/24 03:19:14;;;;;;;10.73;9.82;;;;;;;7.68;68.29;100750.38;5084613;28;20416;-86
2020/12/24 03:21:39;;;;;;;16.92;15.68;;;;;;;7.74;68.75;100746.97;5052073;28;20035;-85
2020/12/24 03:24:05;;;;;;;15.02;13.73;;;;;;;7.73;68.43;100752.56;5089388;28;20105;-83
2020/12/24 03:26:31;;;;;;;11.00;10.07;;;;;;;7.97;67.42;100748.81;5070042;28;20016;-85
2020/12/24 03:28:56;;;;;;;15.30;13.95;;;;;;;8.03;67.52;100742.66;5070192;28;20063;-84
2020/12/24 03:31:23;;;;;;;13.63;12.60;;;;;;;8.32;67.69;100768.16;5069088;28;20416;-84
2020/12/24 03:33:50;;;;;;;10.85;10.18;;;;;;;8.12;67.58;100752.41;5053332;28;20855;-82
2020/12/24 03:36:16;;;;;;;15.65;14.63;;;;;;;8.12;67.59;100757.81;5056909;28;20039;-84
2020/12/24 03:38:41;;;;;;;6.97;6.55;;;;;;;8.15;67.78;100776.41;5086085;28;20032;-83
2020/12/24 03:41:06;;;;;;;11.38;9.63;;;;;;;7.93;67.86;100750.22;5054129;28;20746;-86
2020/12/24 03:43:32;;;;;;;8.85;8.05;;;;;;;7.81;67.79;100760.59;5088789;28;20047;-83
2020/12/24 03:45:57;;;;;;;12.80;11.60;;;;;;;7.86;67.77;100759.06;5070836;28;20059;-85
2020/12/24 03:48:23;;;;;;;14.70;13.93;;;;;;;8.04;67.79;100771.44;5073852;28;20032;-83
2020/12/24 03:50:48;;;;;;;8.48;7.88;;;;;;;7.89;68.08;100768.66;5071089;28;20032;-84
2020/12/24 03:53:14;;;;;;;11.63;10.68;;;;;;;8.04;67.75;100787.69;5069146;28;20046;-85
2020/12/24 03:55:39;;;;;;;14.07;13.07;;;;;;;8.28;67.36;100777.66;5069854;28;20541;-84
2020/12/24 03:58:05;;;;;;;16.27;15.25;;;;;;;7.94;68.11;100787.06;5033217;28;20039;-84
2020/12/24 04:00:30;;;;;;;10.43;9.63;;;;;;;8.17;67.40;100793.34;5050262;28;20071;-83
2020/12/24 04:02:55;;;;;;;8.75;8.00;;;;;;;7.98;68.00;100800.06;5079821;28;20538;-85
2020/12/24 04:05:21;;;;;;;10.13;9.35;;;;;;;7.92;67.82;100795.38;5067843;28;20028;-85
2020/12/24 04:07:50;;;;;;;10.20;9.45;;;;;;;8.39;66.69;100779.94;5068688;28;20028;-87
2020/12/24 04:10:16;;;;;;;10.23;9.63;;;;;;;8.37;66.65;100781.97;5054027;28;20036;-87
2020/12/24 04:12:41;;;;;;;13.63;12.68;;;;;;;8.37;66.95;100803.66;5084263;28;20490;-83
2020/12/24 04:15:07;;;;;;;13.13;12.25;;;;;;;8.37;67.16;100809.06;5071560;28;20039;-85
2020/12/24 04:17:32;;;;;;;7.45;6.75;;;;;;;8.05;67.49;100811.88;5082862;28;20125;-85
2020/12/24 04:19:57;;;;;;;8.50;6.15;;;;;;;8.27;67.29;100814.75;5086585;28;20522;-86
2020/12/24 04:22:23;;;;;;;6.13;5.72;;;;;;;8.16;67.68;100820.63;5047261;28;20048;-87
2020/12/24 04:24:48;;;;;;;6.43;5.70;;;;;;;8.49;66.47;100821.19;5036850;28;20056;-88
2020/12/24 04:27:14;;;;;;;7.43;6.78;;;;;;;8.58;66.43;100833.66;5069231;28;20039;-86
2020/12/24 04:29:39;;;;;;;4.18;3.90;;;;;;;8.35;67.14;100825.53;5069844;28;20028;-86
2020/12/24 04:32:05;;;;;;;4.60;3.90;;;;;;;8.45;67.01;100848.84;5055259;28;20035;-84
2020/12/24 04:34:30;;;;;;;8.52;7.97;;;;;;;8.46;66.73;100850.53;5069557;28;20036;-86
2020/12/24 04:36:56;;;;;;;10.05;9.15;;;;;;;8.16;67.78;100855.84;5087513;28;20582;-87
2020/12/24 04:39:21;;;;;;;5.85;5.32;;;;;;;8.10;67.67;100841.13;5054766;28;20054;-82
2020/12/24 04:41:47;;;;;;;5.93;4.18;;;;;;;8.35;67.14;100868.88;5066778;28;20043;-86
2020/12/24 04:44:14;;;;;;;5.43;4.45;;;;;;;8.61;66.16;100867.69;5069425;28;20039;-85
2020/12/24 04:46:42;;;;;;;8.05;7.30;;;;;;;8.46;66.59;100856.78;5086886;28;20067;-88
2020/12/24 04:49:09;;;;;;;5.78;5.35;;;;;;;8.45;66.86;100868.69;5082170;28;20082;-87
2020/12/24 04:51:34;;;;;;;6.45;6.15;;;;;;;8.33;66.96;100853.84;5088015;28;20042;-87
2020/12/24 04:54:01;;;;;;;5.05;4.85;;;;;;;8.53;66.34;100890.28;5068113;28;20032;-86
2020/12/24 04:56:26;;;;;;;4.07;3.08;;;;;;;8.44;66.38;100856.16;5069838;28;20028;-86
2020/12/24 04:58:53;;;;;;;9.60;8.77;;;;;;;8.45;66.24;100882.22;5068667;28;20067;-86
2020/12/24 05:01:19;;;;;;;8.02;7.53;;;;;;;8.47;66.04;100873.91;5069943;28;20433;-83
2020/12/24 05:03:46;;;;;;;9.40;8.40;;;;;;;8.62;65.83;100876.66;5033984;28;20033;-85
2020/12/24 05:06:15;;;;;;;8.20;7.50;;;;;;;8.60;65.72;100879.53;5086950;28;20032;-86
2020/12/24 05:08:48;;;;;;;7.72;7.10;;;;;;;8.54;65.64;100864.00;5084432;28;20036;-85
2020/12/24 05:11:14;;;;;;;7.63;7.13;;;;;;;8.74;65.31;100888.75;5053598;28;20047;-85
2020/12/24 05:13:40;;;;;;;6.68;6.25;;;;;;;8.65;65.23;100882.56;5080650;28;20078;-86
2020/12/24 05:16:23;;;;;;;8.20;7.57;;;;;;;8.86;64.87;100895.41;5068384;28;20047;-86
2020/12/24 05:18:49;;;;;;;7.50;6.97;;;;;;;8.91;64.66;100884.00;5087362;28;20119;-86
2020/12/24 05:21:44;;;;;;;4.05;3.75;;;;;;;8.38;65.58;100881.22;5063460;28;20883;-86
2020/12/24 05:24:24;;;;;;;7.03;6.50;;;;;;;8.74;64.75;100886.03;5047318;28;20528;-87
2020/12/24 05:26:50;;;;;;;5.13;4.82;;;;;;;9.04;64.42;100907.81;5066395;28;20029;-87
2020/12/24 05:29:16;;;;;;;6.15;5.65;;;;;;;9.02;64.68;100927.00;5067679;28;20056;-86
2020/12/24 05:31:41;;;;;;;7.43;6.95;;;;;;;8.99;65.27;100926.50;5085840;28;20462;-87
2020/12/24 05:34:06;;;;;;;5.82;5.53;;;;;;;9.01;65.01;100921.75;5051762;28;20105;-85
2020/12/24 05:36:32;;;;;;;8.15;6.50;;;;;;;9.04;65.04;100934.94;5062681;28;20055;-87
2020/12/24 05:38:57;;;;;;;5.32;4.97;;;;;;;9.02;65.20;100955.97;5053441;28;20043;-86
2020/12/24 05:41:34;;;;;;;5.63;5.30;;;;;;;8.99;65.09;100949.06;5075504;28;20505;-86
2020/12/24 05:44:01;;;;;;;6.00;5.47;;;;;;;9.02;65.82;100974.94;5049133;28;20028;-85
2020/12/24 05:46:27;;;;;;;7.80;7.28;;;;;;;9.12;65.33;100964.69;5087488;28;20478;-89
2020/12/24 05:48:54;;;;;;;6.25;5.22;;;;;;;9.21;65.19;100981.75;5053043;28;20027;-88
2020/12/24 05:51:19;;;;;;;7.93;7.32;;;;;;;9.11;65.34;100974.72;5086911;28;20032;-89
2020/12/24 05:53:46;;;;;;;6.15;5.80;;;;;;;9.34;64.99;100989.25;5070964;28;20547;-88
2020/12/24 05:56:19;;;;;;;8.00;4.63;;;;;;;9.09;65.36;100981.34;5066842;28;20020;-87
2020/12/24 05:58:47;;;;;;;6.40;5.90;;;;;;;8.93;65.71;100969.59;5069778;28;20119;-86
2020/12/24 06:01:14;;;;;;;8.27;7.43;;;;;;;9.17;65.52;100994.81;5066771;28;20023;-88
2020/12/24 06:04:03;;;;;;;7.22;6.72;;;;;;;9.25;65.33;100992.06;5069651;28;20426;-88
2020/12/24 06:06:46;;;;;;;6.85;5.78;;;;;;;9.22;65.43;100995.13;5072145;28;20039;-89
2020/12/24 06:09:15;;;;;;;6.68;6.03;;;;;;;9.19;65.64;100986.50;5088853;28;20036;-89
2020/12/24 06:11:47;;;;;;;8.60;7.90;;;;;;;9.21;65.53;100990.72;5085705;28;20031;-89
2020/12/24 06:14:29;;;;;;;6.47;5.95;;;;;;;9.13;65.42;100993.53;5085336;28;20402;-90
2020/12/24 06:16:55;;;;;;;7.28;6.68;;;;;;;9.36;65.25;101003.47;5091946;28;20034;-87
2020/12/24 06:19:21;;;;;;;8.75;7.30;;;;;;;9.25;65.70;101007.47;5072793;28;20122;-88
2020/12/24 06:21:47;;;;;;;9.52;8.82;;;;;;;9.11;65.72;100995.56;5086172;28;20031;-89
2020/12/24 06:24:12;;;;;;;6.60;6.10;;;;;;;9.19;65.58;101011.78;5053266;28;20033;-88
2020/12/24 06:26:46;;;;;;;5.60;5.05;;;;;;;9.21;65.91;101012.44;5060933;28;20028;-88
2020/12/24 06:29:13;;;;;;;11.65;10.50;;;;;;;9.21;65.53;101000.75;5084882;28;20042;-89
2020/12/24 06:31:44;;;;;;;9.18;7.20;;;;;;;9.36;65.45;101017.91;5068277;28;20031;-89
2020/12/24 06:34:28;;;;;;;9.73;9.02;;;;;;;9.27;65.71;101019.84;5085606;28;20091;-88
2020/12/24 06:36:54;;;;;;;4.38;4.07;;;;;;;9.36;65.48;101026.06;5087289;28;20503;-87
2020/12/24 06:39:41;;;;;;;6.72;5.57;;;;;;;9.41;65.49;101029.03;5084019;28;20038;-90
2020/12/24 06:42:27;;;;;;;7.25;4.88;;;;;;;9.37;65.42;101029.59;5088967;28;20111;-85
2020/12/24 06:44:52;;;;;;;7.63;6.97;;;;;;;9.29;66.26;101034.06;5085331;28;20020;-88
2020/12/24 06:47:18;;;;;;;9.85;8.85;;;;;;;9.45;65.29;101033.09;5070450;28;20043;-88
2020/12/24 06:49:44;;;;;;;6.43;6.03;;;;;;;9.44;65.66;101027.84;5052988;28;20363;-86
2020/12/24 06:52:10;;;;;;;5.25;3.63;;;;;;;9.21;66.01;101025.16;5069369;28;20066;-87
2020/12/24 06:54:38;;;;;;;8.98;8.10;;;;;;;9.17;66.42;101016.53;5050017;28;20033;-87
2020/12/24 06:57:25;;;;;;;6.28;5.78;;;;;;;9.35;65.91;101032.50;5069537;28;20114;-88
2020/12/24 07:00:20;;;;;;;7.57;7.00;;;;;;;9.48;66.00;101050.84;5065347;28;20036;-86
2020/12/24 07:02:50;;;;;;;11.07;5.88;;;;;;;9.56;65.97;101049.94;5064491;28;20048;-87
2020/12/24 07:05:38;;;;;;;5.35;4.93;;;;;;;9.51;65.74;101058.63;5067370;28;20028;-87
2020/12/24 07:08:03;;;;;;;6.93;6.43;;;;;;;9.52;65.77;101056.78;5080834;28;20028;-86
2020/12/24 07:10:45;;;;;;;4.60;4.20;;;;;;;9.36;66.03;101065.91;5079949;28;20716;-87
2020/12/24 07:13:30;;;;;;;4.45;3.17;;;;;;;9.61;65.47;101064.66;5070767;28;20081;-88
2020/12/24 07:15:56;;;;;;;11.95;4.65;;;;;;;9.72;65.30;101079.66;5080422;28;20064;-85
2020/12/24 07:18:23;;;;;;;5.28;4.57;;;;;;;9.70;65.24;101089.00;5085584;28;20134;-88
2020/12/24 07:20:50;;;;;;;6.25;4.95;;;;;;;9.78;65.02;101097.94;5050410;28;20047;-86
2020/12/24 07:23:27;;;;;;;4.57;3.60;;;;;;;9.74;65.07;101088.47;5055904;28;20089;-86
2020/12/24 07:25:53;;;;;;;9.43;5.10;;;;;;;9.84;64.74;101091.75;5066133;28;20042;-86
2020/12/24 07:28:18;;;;;;;6.85;4.30;;;;;;;9.88;64.99;101099.53;5068659;28;20028;-88
2020/12/24 07:30:55;;;;;;;7.70;6.57;;;;;;;9.83;64.88;101102.81;5080059;28;20131;-89
2020/12/24 07:33:20;;;;;;;7.88;3.60;;;;;;;9.84;64.78;101099.06;5062348;28;20038;-89
2020/12/24 07:35:46;;;;;;;4.18;2.78;;;;;;;9.83;64.80;101097.38;5071014;28;20035;-87
2020/12/24 07:38:11;;;;;;;4.90;3.88;;;;;;;9.75;65.22;101092.03;5082927;28;20119;-86
2020/12/24 07:40:37;;;;;;;4.57;2.78;;;;;;;9.78;64.90;101097.94;5056514;28;20051;-89
2020/12/24 07:43:07;;;;;;;4.45;4.05;;;;;;;9.75;65.45;101122.75;5055534;28;20035;-86
2020/12/24 07:45:32;;;;;;;5.57;4.95;;;;;;;9.75;65.62;101128.19;5072209;28;20044;-87
2020/12/24 07:47:58;;;;;;;7.82;5.57;;;;;;;9.75;65.60;101128.19;5091014;28;20028;-86
2020/12/24 07:50:32;;;;;;;7.28;5.78;;;;;;;9.63;66.26;101135.06;5092707;28;20036;-88
2020/12/24 07:52:58;;;;;;;9.70;5.60;;;;;;;9.64;65.83;101112.34;5074181;28;20032;-86
2020/12/24 07:55:24;;;;;;;10.23;4.88;;;;;;;9.67;65.78;101131.81;5052193;28;20035;-89
2020/12/24 07:57:49;;;;;;;19.23;5.10;;;;;;;9.64;66.09;101147.63;5040903;28;20040;-88
2020/12/24 08:00:17;;;;;;;10.20;4.53;;;;;;;9.83;65.58;101159.84;5069932;28;20509;-85
2020/12/24 08:02:42;;;;;;;14.95;4.80;;;;;;;9.94;65.42;101158.56;5087302;28;20028;-86
2020/12/24 08:05:07;;;;;;;7.85;4.07;;;;;;;10.03;64.94;101152.84;5069950;28;20039;-88
2020/12/24 08:07:33;;;;;;;10.50;5.75;;;;;;;9.81;65.44;101135.59;5056488;28;20028;-88
2020/12/24 08:10:11;;;;;;;11.35;6.65;;;;;;;10.09;64.92;101175.75;5056405;28;20051;-90
2020/12/24 08:12:36;;;;;;;12.63;5.75;;;;;;;10.09;64.63;101167.59;5071418;28;20032;-89
2020/12/24 08:15:22;;;;;;;19.15;7.22;;;;;;;10.06;64.45;101184.25;5059542;28;20090;-90
2020/12/24 08:18:09;;;;;;;13.02;6.30;;;;;;;10.15;64.21;101188.59;5069473;28;20020;-88
2020/12/24 08:20:42;;;;;;;14.20;3.47;;;;;;;10.19;64.07;101197.19;5072030;28;20043;-90
2020/12/24 08:23:23;;;;;;;18.83;6.45;;;;;;;10.44;63.16;101199.69;5071115;28;20547;-88
2020/12/24 08:25:53;;;;;;;18.25;6.63;;;;;;;10.42;63.45;101197.16;5087095;28;20028;-88
2020/12/24 08:28:19;;;;;;;17.88;6.75;;;;;;;10.17;63.90;101194.66;5093553;28;20034;-89
2020/12/24 08:30:48;;;;;;;13.25;4.60;;;;;;;10.37;63.51;101205.06;5073310;28;20085;-89
2020/12/24 08:33:14;;;;;;;14.55;4.85;;;;;;;10.21;63.75;101216.91;5057045;28;20058;-85
2020/12/24 08:35:40;;;;;;;14.05;4.28;;;;;;;10.25;62.81;101212.78;5082860;28;20095;-87
2020/12/24 08:38:18;;;;;;;32.50;5.53;;;;;;;10.29;62.78;101199.69;5070977;28;20045;-88
2020/12/24 08:40:45;;;;;;;19.20;5.75;;;;;;;10.20;63.02;101210.59;5056888;28;20159;-87
2020/12/24 08:43:12;;;;;;;17.67;7.80;;;;;;;10.31;62.07;101212.03;5065837;28;20121;-88
2020/12/24 08:45:46;;;;;;;20.13;6.68;;;;;;;10.36;61.65;101222.38;5066754;28;20111;-88
2020/12/24 08:48:34;;;;;;;19.08;5.38;;;;;;;10.51;61.60;101231.41;5069076;28;20035;-87
2020/12/24 08:51:00;;;;;;;11.68;5.35;;;;;;;10.41;61.23;101224.53;5088862;28;20039;-87
2020/12/24 08:53:28;;;;;;;13.52;5.85;;;;;;;10.48;60.32;101239.09;5066432;28;20078;-86
2020/12/24 08:55:56;;;;;;;16.55;5.00;;;;;;;10.35;60.73;101229.72;5065104;28;20024;-87
2020/12/24 08:58:21;;;;;;;17.90;4.55;;;;;;;10.24;60.35;101235.56;5083938;28;20460;-87
2020/12/24 09:00:47;;;;;;;12.65;4.85;;;;;;;10.39;59.87;101233.75;5060601;28;20028;-88
2020/12/24 09:03:26;;;;;;;18.05;5.43;;;;;;;10.38;59.18;101245.66;5063534;28;20040;-87
2020/12/24 09:05:53;;;;;;;14.98;6.18;;;;;;;10.46;59.44;101238.44;5080488;28;20108;-89
2020/12/24 09:08:28;;;;;;;29.90;6.97;;;;;;;10.44;59.99;101246.78;5064077;28;20031;-89
2020/12/24 09:10:54;;;;;;;16.73;5.80;;;;;;;10.60;59.62;101248.47;5048718;28;20063;-90
2020/12/24 09:13:20;;;;;;;14.23;4.13;;;;;;;10.71;59.12;101258.88;5073050;28;20028;-87
2020/12/24 09:15:45;;;;;;;20.25;4.68;;;;;;;10.51;59.16;101242.28;5066997;28;20040;-88
2020/12/24 09:18:11;;;;;;;13.30;3.92;;;;;;;10.64;59.55;101262.53;5073163;28;20391;-88
2020/12/24 09:20:38;;;;;;;17.05;7.10;;;;;;;10.47;58.85;101256.44;5050606;28;20035;-89
2020/12/24 09:23:10;;;;;;;13.35;7.72;;;;;;;10.77;58.96;101262.75;5086777;28;20063;-86
2020/12/24 09:25:42;;;;;;;22.40;6.03;;;;;;;10.72;58.51;101284.22;5068542;28;20071;-87
2020/12/24 09:28:20;;;;;;;;;;;;;;;10.74;58.28;101287.59;5081611;28;20152;-85
2020/12/24 09:30:46;;;;;;;15.48;5.53;;;;;;;10.85;58.46;101284.41;5072157;28;20756;-88
2020/12/24 09:33:12;;;;;;;22.48;5.65;;;;;;;10.67;58.58;101289.38;5056949;28;20050;-86
2020/12/24 09:35:37;;;;;;;16.85;5.80;;;;;;;10.75;58.77;101294.72;5057743;28;20474;-88
2020/12/24 09:38:03;;;;;;;10.43;3.83;;;;;;;10.78;58.26;101299.78;5057581;28;20101;-89
2020/12/24 09:40:28;;;;;;;16.90;4.45;;;;;;;10.65;57.74;101302.31;5071643;28;20363;-88
2020/12/24 09:42:54;;;;;;;11.23;3.80;;;;;;;10.37;57.82;101313.81;5069466;28;20033;-89
2020/12/24 09:45:19;;;;;;;16.13;5.57;;;;;;;10.65;58.76;101308.59;5069233;28;20394;-85
2020/12/24 09:47:46;;;;;;;12.02;4.35;;;;;;;10.73;58.15;101318.56;5036257;28;20089;-91
2020/12/24 09:50:12;;;;;;;17.27;5.47;;;;;;;10.66;56.97;101313.03;5071066;28;20622;-87
2020/12/24 09:52:38;;;;;;;13.77;7.68;;;;;;;10.80;57.11;101324.09;5066428;28;20043;-87
2020/12/24 09:55:04;;;;;;;14.02;10.73;;;;;;;10.66;56.87;101332.06;5049233;28;20386;-86
2020/12/24 09:57:31;;;;;;;5.70;4.75;;;;;;;10.74;56.25;101336.56;5051006;28;20036;-84
2020/12/24 09:59:57;;;;;;;9.93;5.47;;;;;;;10.82;56.45;101341.09;5073685;28;20099;-86
2020/12/24 10:02:23;;;;;;;12.25;4.82;;;;;;;10.78;56.63;101323.44;5065736;28;20043;-88
2020/12/24 10:04:48;;;;;;;12.88;5.28;;;;;;;10.82;56.81;101319.31;5052296;28;20386;-88
2020/12/24 10:07:14;;;;;;;11.57;5.22;;;;;;;10.98;56.47;101331.91;5086836;28;20032;-87
2020/12/24 10:09:39;;;;;;;11.82;5.20;;;;;;;11.04;57.25;101326.53;5034928;28;20028;-88
2020/12/24 10:12:05;;;;;;;21.33;7.07;;;;;;;11.05;56.95;101330.97;5073676;28;20047;-88
2020/12/24 10:14:30;;;;;;;11.68;7.97;;;;;;;11.09;57.06;101350.47;5050639;28;20368;-87
2020/12/24 10:16:55;;;;;;;15.13;7.00;;;;;;;11.19;57.42;101347.50;5071976;28;20036;-87
2020/12/24 10:19:21;;;;;;;16.08;5.88;;;;;;;11.34;57.18;101352.91;5068920;28;20035;-88
2020/12/24 10:21:46;;;;;;;11.43;7.80;;;;;;;11.34;57.55;101358.34;5055691;28;20036;-87
2020/12/24 10:24:14;;;;;;;11.82;5.85;;;;;;;11.43;57.19;101362.66;5056648;28;20482;-88
2020/12/24 10:26:39;;;;;;;16.17;3.58;;;;;;;11.43;57.47;101360.81;5038126;28;20028;-89
2020/12/24 10:29:05;;;;;;;8.70;3.05;;;;;;;11.55;57.00;101352.16;5069281;28;20036;-89
2020/12/24 10:31:30;;;;;;;11.48;3.72;;;;;;;11.57;56.44;101360.97;5034830;28;20478;-86
2020/12/24 10:33:56;;;;;;;19.55;4.70;;;;;;;11.46;56.46;101360.44;5049718;28;20043;-84
2020/12/24 10:36:23;;;;;;;19.50;5.45;;;;;;;11.46;56.90;101354.13;5064208;28;20129;-87
2020/12/24 10:38:48;;;;;;;17.27;4.78;;;;;;;11.68;56.34;101371.41;5051147;28;20451;-86
2020/12/24 10:41:14;;;;;;;13.43;4.30;;;;;;;11.49;56.80;101355.63;5083275;28;20025;-86
2020/12/24 10:43:40;;;;;;;10.20;2.47;;;;;;;11.72;57.05;101383.59;5065740;28;20116;-86
2020/12/24 10:46:05;;;;;;;8.18;3.17;;;;;;;10.82;58.85;101384.63;5090848;28;20024;-88
2020/12/24 10:48:30;;;;;;;8.23;2.47;;;;;;;10.60;60.14;101400.78;5056973;28;20448;-87
2020/12/24 10:50:56;;;;;;;11.90;3.13;;;;;;;10.49;59.88;101395.78;5049294;28;20032;-89
2020/12/24 10:53:21;;;;;;;6.78;2.53;;;;;;;10.26;60.06;101391.16;5066603;28;20039;-88
2020/12/24 10:55:47;;;;;;;3.25;1.40;;;;;;;10.29;59.57;101358.19;5067475;28;20436;-87
2020/12/24 10:58:12;;;;;;;6.47;1.95;;;;;;;10.76;58.34;101375.31;5083433;28;20028;-88
2020/12/24 11:00:38;;;;;;;5.18;3.13;;;;;;;10.50;58.89;101354.81;5075696;28;20029;-87
2020/12/24 11:03:03;;;;;;;4.03;2.75;;;;;;;10.54;59.41;101353.41;5067442;28;20047;-88
2020/12/24 11:05:28;;;;;;;24.33;14.80;;;;;;;10.55;59.20;101359.69;5039063;28;20037;-86
2020/12/24 11:07:54;;;;;;;7.75;4.20;;;;;;;10.66;59.37;101364.69;5060991;28;20031;-88
2020/12/24 11:10:19;;;;;;;16.10;12.68;;;;;;;10.45;59.28;101362.66;5051298;28;20039;-85
2020/12/24 11:12:45;;;;;;;11.85;4.78;;;;;;;10.83;59.17;101380.84;5083043;28;20124;-85
2020/12/24 11:15:10;;;;;;;10.48;6.47;;;;;;;10.93;59.20;101378.72;5049906;28;21719;-85
2020/12/24 11:17:36;;;;;;;20.00;7.63;;;;;;;11.08;59.35;101384.19;5078803;28;20031;-87
2020/12/24 11:20:02;;;;;;;13.20;7.32;;;;;;;11.06;59.48;101372.63;5069115;28;20034;-86
2020/12/24 11:22:27;;;;;;;20.88;14.75;;;;;;;11.15;58.84;101385.13;5072242;28;20397;-84
2020/12/24 11:24:53;;;;;;;10.25;5.68;;;;;;;11.14;59.01;101375.28;5088339;28;20035;-85
2020/12/24 11:27:18;;;;;;;15.88;10.43;;;;;;;11.26;58.21;101381.09;5090738;28;20035;-85
2020/12/24 11:29:43;;;;;;;14.43;7.28;;;;;;;11.32;56.99;101368.59;5055180;28;20024;-87